createdAt,value
2023-08-03T00:01:53.671Z,98817.91
2023-08-03T00:04:25.699Z,98814.44
2023-08-03T00:06:57.730Z,98817.91
2023-08-03T00:09:29.725Z,98827.66
2023-08-03T00:12:01.760Z,98834.72
2023-08-03T00:14:33.783Z,98824.09
2023-08-03T00:17:06.222Z,98828.59
2023-08-03T00:19:38.252Z,98829.41
2023-08-03T00:22:11.216Z,98832.06
2023-08-03T00:24:43.207Z,98833.81
2023-08-03T00:27:15.219Z,98843.50
2023-08-03T00:29:47.175Z,98845.25
2023-08-03T00:32:19.769Z,98845.31
2023-08-03T00:34:51.731Z,98843.53
2023-08-03T00:37:23.749Z,98857.72
2023-08-03T00:39:55.710Z,98856.94
2023-08-03T00:42:27.817Z,98866.50
2023-08-03T00:44:59.858Z,98878.88
2023-08-03T00:47:32.085Z,98866.50
2023-08-03T00:50:04.594Z,98884.97
2023-08-03T00:52:36.943Z,98884.97
2023-08-03T00:55:09.379Z,98856.13
2023-08-03T00:57:41.354Z,98891.19
2023-08-03T01:00:14.189Z,98910.59
2023-08-03T01:02:46.298Z,98898.25
2023-08-03T01:05:18.463Z,98914.19
2023-08-03T01:07:51.248Z,98903.75
2023-08-03T01:10:23.555Z,98911.56
2023-08-03T01:12:57.622Z,98916.88
2023-08-03T01:15:29.648Z,98940.72
2023-08-03T01:18:01.818Z,98933.66
2023-08-03T01:20:38.747Z,98936.31
2023-08-03T01:23:11.771Z,98943.31
2023-08-03T01:25:43.922Z,98920.66
2023-08-03T01:28:15.874Z,98950.34
2023-08-03T01:30:49.268Z,98950.41
2023-08-03T01:33:21.625Z,98953.94
2023-08-03T01:35:53.998Z,98958.31
2023-08-03T01:38:26.060Z,98969.81
2023-08-03T01:40:58.178Z,98984.78
2023-08-03T01:43:30.231Z,98967.22
2023-08-03T01:46:02.283Z,98974.16
2023-08-03T01:48:34.230Z,98972.44
2023-08-03T01:51:06.369Z,98985.66
2023-08-03T01:53:38.360Z,98975.97
2023-08-03T01:56:10.311Z,98975.03
2023-08-03T01:58:42.246Z,98970.59
2023-08-03T02:01:14.174Z,98969.81
2023-08-03T02:03:46.152Z,98977.69
2023-08-03T02:06:18.156Z,98990.16
2023-08-03T02:08:50.144Z,98987.59
2023-08-03T02:11:22.096Z,98991.22
2023-08-03T02:13:54.119Z,98984.13
2023-08-03T02:16:26.321Z,98983.34
2023-08-03T02:18:58.375Z,98977.16
2023-08-03T02:21:30.368Z,98985.09
2023-08-03T02:24:02.358Z,98977.22
2023-08-03T02:26:34.384Z,98979.00
2023-08-03T02:29:06.744Z,98945.75
2023-08-03T02:31:38.714Z,98977.22
2023-08-03T02:34:10.684Z,98971.97
2023-08-03T02:36:42.643Z,98974.63
2023-08-03T02:39:14.738Z,98972.88
2023-08-03T02:41:46.890Z,98986.25
2023-08-03T02:44:19.304Z,98990.63
2023-08-03T02:46:51.276Z,98974.69
2023-08-03T02:49:23.278Z,98974.78
2023-08-03T02:51:55.219Z,98981.81
2023-08-03T02:54:27.187Z,98980.00
2023-08-03T02:56:59.110Z,98983.56
2023-08-03T02:59:31.109Z,98980.97
2023-08-03T03:02:03.121Z,98983.63
2023-08-03T03:04:35.095Z,98971.34
2023-08-03T03:07:07.253Z,98989.91
2023-08-03T03:09:39.219Z,98993.44
2023-08-03T03:12:11.269Z,98984.59
2023-08-03T03:14:43.244Z,99005.88
2023-08-03T03:17:15.949Z,99005.03
2023-08-03T03:19:47.911Z,99004.16
2023-08-03T03:22:19.848Z,99020.06
2023-08-03T03:24:51.845Z,99015.69
2023-08-03T03:27:23.959Z,99009.47
2023-08-03T03:29:55.913Z,99017.38
2023-08-03T03:32:28.016Z,99010.44
2023-08-03T03:35:00.120Z,99013.97
2023-08-03T03:37:32.113Z,99030.84
2023-08-03T03:40:04.830Z,99027.31
2023-08-03T03:42:37.204Z,99044.94
2023-08-03T03:45:09.630Z,99024.66
2023-08-03T03:47:41.654Z,99039.75
2023-08-03T03:50:13.774Z,99059.22
2023-08-03T03:52:45.776Z,99041.63
2023-08-03T03:55:17.824Z,99061.88
2023-08-03T03:57:49.743Z,99057.47
2023-08-03T04:00:43.189Z,99080.53
2023-08-03T04:03:15.294Z,99050.53
2023-08-03T04:05:47.263Z,99069.88
2023-08-03T04:08:19.255Z,99081.34
2023-08-03T04:10:51.224Z,99083.13
2023-08-03T04:13:23.184Z,99078.75
2023-08-03T04:15:55.143Z,99089.31
2023-08-03T04:18:28.983Z,99085.75
2023-08-03T04:21:00.997Z,99079.66
2023-08-03T04:23:33.034Z,99098.16
2023-08-03T04:26:05.122Z,99097.28
2023-08-03T04:28:37.649Z,99107.38
2023-08-03T04:31:10.807Z,99101.56
2023-08-03T04:33:42.911Z,99105.16
2023-08-03T04:36:33.383Z,99119.44
2023-08-03T04:39:05.528Z,99119.47
2023-08-03T04:41:37.468Z,99126.53
2023-08-03T04:44:09.443Z,99134.56
2023-08-03T04:46:41.428Z,99130.16
2023-08-03T04:49:14.717Z,99135.44
2023-08-03T04:51:47.173Z,99140.75
2023-08-03T04:54:20.829Z,99162.81
2023-08-03T04:56:53.772Z,99149.53
2023-08-03T04:59:25.928Z,99147.72
2023-08-03T05:01:57.953Z,99160.03
2023-08-03T05:04:45.335Z,99160.97
2023-08-03T05:07:17.326Z,99156.47
2023-08-03T05:09:49.326Z,99169.75
2023-08-03T05:12:21.428Z,99179.56
2023-08-03T05:14:53.404Z,99176.91
2023-08-03T05:17:25.393Z,99173.38
2023-08-03T05:19:57.454Z,99187.50
2023-08-03T05:22:29.456Z,99194.59
2023-08-03T05:25:01.546Z,99201.63
2023-08-03T05:27:33.613Z,99201.66
2023-08-03T05:30:07.887Z,99202.50
2023-08-03T05:32:55.434Z,99209.53
2023-08-03T05:35:27.447Z,99202.44
2023-08-03T05:37:59.492Z,99220.94
2023-08-03T05:40:31.496Z,99213.88
2023-08-03T05:43:08.139Z,99223.53
2023-08-03T05:45:49.987Z,99223.59
2023-08-03T05:48:22.567Z,99228.97
2023-08-03T05:50:56.686Z,99223.66
2023-08-03T05:53:29.084Z,99242.09
2023-08-03T05:56:11.620Z,99252.75
2023-08-03T05:58:44.715Z,99254.50
2023-08-03T06:01:21.737Z,99249.19
2023-08-03T06:03:54.879Z,99258.03
2023-08-03T06:06:27.197Z,99258.03
2023-08-03T06:09:00.995Z,99253.69
2023-08-03T06:11:33.222Z,99266.00
2023-08-03T06:14:11.396Z,99273.97
2023-08-03T06:16:46.686Z,99274.03
2023-08-03T06:19:18.773Z,99280.16
2023-08-03T06:21:50.766Z,99276.56
2023-08-03T06:24:23.309Z,99284.47
2023-08-03T06:26:55.407Z,99290.56
2023-08-03T06:29:27.672Z,99287.88
2023-08-03T06:32:00.337Z,99285.22
2023-08-03T06:34:34.464Z,99292.31
2023-08-03T06:37:06.993Z,99305.56
2023-08-03T06:39:39.061Z,99302.00
2023-08-03T06:42:11.053Z,99292.31
2023-08-03T06:44:43.129Z,99306.47
2023-08-03T06:47:15.267Z,99323.31
2023-08-03T06:49:47.267Z,99328.66
2023-08-03T06:52:19.297Z,99338.41
2023-08-03T06:54:51.278Z,99331.31
2023-08-03T06:57:23.317Z,99341.06
2023-08-03T06:59:56.421Z,99349.84
2023-08-03T07:02:28.496Z,99348.13
2023-08-03T07:05:00.574Z,99357.81
2023-08-03T07:07:33.381Z,99353.38
2023-08-03T07:10:07.252Z,99355.16
2023-08-03T07:12:39.306Z,99353.47
2023-08-03T07:15:11.636Z,99372.81
2023-08-03T07:17:43.655Z,99382.44
2023-08-03T07:20:15.852Z,99382.44
2023-08-03T07:22:49.946Z,99385.97
2023-08-03T07:25:22.025Z,99376.28
2023-08-03T07:27:55.253Z,99385.84
2023-08-03T07:30:28.186Z,99388.50
2023-08-03T07:33:01.109Z,99402.59
2023-08-03T07:35:33.193Z,99385.78
2023-08-03T07:38:05.642Z,99391.09
2023-08-03T07:40:39.404Z,99386.50
2023-08-03T07:43:11.407Z,99398.72
2023-08-03T07:48:18.299Z,99411.69
2023-08-03T07:50:50.249Z,99406.38
2023-08-03T07:53:22.247Z,99417.84
2023-08-03T07:55:54.201Z,99403.59
2023-08-03T07:58:26.141Z,99411.59
2023-08-03T08:01:08.965Z,99418.78
2023-08-03T08:03:42.872Z,99430.41
2023-08-03T08:06:18.956Z,99428.69
2023-08-03T08:09:08.465Z,99442.06
2023-08-03T08:11:40.620Z,99450.13
2023-08-03T08:14:12.753Z,99439.56
2023-08-03T08:16:46.840Z,99466.97
2023-08-03T08:19:31.814Z,99452.03
2023-08-03T08:22:14.794Z,99471.50
2023-08-03T08:24:49.019Z,99468.06
2023-08-03T08:27:21.485Z,99484.13
2023-08-03T08:29:53.505Z,99489.44
2023-08-03T08:32:25.607Z,99490.31
2023-08-03T08:34:57.709Z,99500.06
2023-08-03T08:37:31.228Z,99501.84
2023-08-03T08:40:04.487Z,99495.75
2023-08-03T08:42:36.693Z,99512.47
2023-08-03T08:45:11.953Z,99513.38
2023-08-03T08:47:44.798Z,99520.47
2023-08-03T09:00:47.674Z,99532.72
2023-08-03T09:03:20.861Z,99554.84
2023-08-03T09:08:56.658Z,99558.50
2023-08-03T09:11:42.504Z,99567.41
2023-08-03T09:14:15.655Z,99567.50
2023-08-03T09:16:47.837Z,99575.47
2023-08-03T09:25:31.155Z,99595.72
2023-08-03T09:38:50.152Z,99633.72
2023-08-03T09:44:15.891Z,99645.19
2023-08-03T09:46:51.902Z,99654.81
2023-08-03T09:49:25.146Z,99650.28
2023-08-03T09:52:05.407Z,99670.59
2023-08-03T09:58:15.067Z,99680.34
2023-08-03T10:00:48.229Z,99673.22
2023-08-03T10:03:20.344Z,99687.34
2023-08-03T10:06:00.532Z,99689.94
2023-08-03T10:08:47.474Z,99682.91
2023-08-03T10:11:21.961Z,99701.41
2023-08-03T10:13:58.676Z,99704.91
2023-08-03T10:16:34.893Z,99709.28
2023-08-03T20:24:16.202Z,100715.69
2023-08-03T20:26:52.132Z,100702.88
2023-08-03T20:29:25.258Z,100701.41
2023-08-03T20:31:57.369Z,100696.25
2023-08-03T20:34:29.406Z,100692.88
2023-08-03T20:37:01.668Z,100699.16
2023-08-03T20:39:36.148Z,100693.91
2023-08-03T20:49:53.147Z,100717.13
2023-08-03T20:52:25.230Z,100722.50
2023-08-03T20:54:57.757Z,100720.69
2023-08-03T20:57:29.803Z,100712.75
2023-08-03T21:00:03.722Z,100719.84
2023-08-03T21:02:35.849Z,100716.31
2023-08-03T21:05:08.272Z,100722.53
2023-08-03T21:07:40.258Z,100727.84
2023-08-03T21:12:47.351Z,100737.59
2023-08-03T21:15:20.022Z,100735.84
2023-08-03T21:17:52.055Z,100737.59
2023-08-03T21:20:24.130Z,100736.72
2023-08-03T21:22:56.172Z,100747.34
2023-08-03T21:25:28.392Z,100745.56
2023-08-03T21:28:00.371Z,100742.03
2023-08-03T21:30:34.133Z,100745.56
2023-08-03T21:33:06.715Z,100741.09
2023-08-03T21:35:38.697Z,100749.09
2023-08-03T21:38:10.678Z,100746.44
2023-08-03T21:40:42.651Z,100754.41
2023-08-03T21:43:14.659Z,100743.75
2023-08-03T21:45:52.045Z,100757.09
2023-08-03T21:48:24.167Z,100749.06
2023-08-03T21:50:56.153Z,100750.81
2023-08-03T21:53:28.157Z,100758.78
2023-08-03T21:56:00.304Z,100755.22
2023-08-03T21:58:32.311Z,100763.19
2023-08-03T22:01:09.853Z,100763.22
2023-08-03T22:03:41.917Z,100773.84
2023-08-03T22:06:14.130Z,100773.84
2023-08-03T22:08:46.112Z,100776.50
2023-08-03T22:11:22.092Z,100784.47
2023-08-03T22:13:54.084Z,100778.25
2023-08-03T22:16:27.425Z,100779.16
2023-08-03T22:18:59.645Z,100773.81
2023-08-03T22:21:38.950Z,100786.22
2023-08-03T22:24:11.542Z,100769.31
2023-08-03T22:26:43.513Z,100787.09
2023-08-03T22:29:15.515Z,100789.78
2023-08-03T22:31:47.782Z,100793.31
2023-08-03T22:34:19.988Z,100793.28
2023-08-03T22:36:51.961Z,100790.63
2023-08-03T22:39:24.060Z,100801.25
2023-08-03T22:41:56.099Z,100802.13
2023-08-03T22:44:28.132Z,100800.38
2023-08-03T22:47:00.108Z,100799.47
2023-08-03T22:49:32.142Z,100803.91
2023-08-03T22:52:04.452Z,100798.56
2023-08-03T22:54:36.440Z,100811.84
2023-08-03T22:57:08.473Z,100823.34
2023-08-03T22:59:40.548Z,100820.69
2023-08-03T23:02:12.554Z,100818.91
2023-08-03T23:04:44.627Z,100823.28
2023-08-03T23:07:16.625Z,100829.47
2023-08-03T23:09:49.240Z,100831.22
2023-08-03T23:12:21.341Z,100810.75
2023-08-03T23:14:53.289Z,100835.63
2023-08-03T23:17:25.260Z,100826.81
2023-08-03T23:19:58.638Z,100832.09
2023-08-03T23:22:30.770Z,100831.13
2023-08-03T23:25:02.752Z,100825.78
2023-08-03T23:27:34.752Z,100823.97
2023-08-03T23:30:08.143Z,100830.16
2023-08-03T23:32:40.477Z,100819.44
2023-08-03T23:35:12.595Z,100830.16
2023-08-03T23:37:44.690Z,100824.78
2023-08-03T23:40:16.782Z,100831.84
2023-08-03T23:42:48.729Z,100840.72
2023-08-03T23:45:20.663Z,100835.38
2023-08-03T23:47:52.653Z,100842.44
2023-08-03T23:50:24.703Z,100844.22
2023-08-03T23:52:56.750Z,100839.78
2023-08-03T23:55:28.735Z,100837.09
2023-08-03T23:58:00.906Z,100838.88
